Chiang Mai, Thailand

6:58 PM ICT on August 30, 2015 (GMT +0700)
ThaiWx Station | | Change Station
CLOSE
Current Station
Personal Weather Station
Location: Chiang Mai, Pa Daet
Elevation: 1007 ft
Nearby Weather Stations

Elev 1007 ft 18.77 °N, 98.97 °E | Updated 27 minutes ago

Scattered Clouds
Scattered Clouds
92.1 °F
Feels Like 102 °F
N
0.0
Wind Variable Wind from NNE
Gusts 2.5 mph

Today
High -- | Low -- °F
--% Chance of Precip.
Yesterday
High -- | Low -- °F
Precip. -- in
6:08 AM 6:40 PM
Full, 99% visible
Pressure 29.74 in
Visibility 6.2 miles
Clouds Mostly Cloudy 4000 ft
Scattered Clouds 30000 ft
Heat Index 102 °F
Dew Point 74 °F
Humidity 56%
Rainfall 0.00 in
Snow Depth Not available.
UV 0 out of 12
Pollen Not available.
Air Quality Not available.
Flu Activity Not available.
METAR VTCC 301130Z 02002KT 9999 BKN040 SCT300 32/20 Q1007 A2975 TEMPO FM1135 TL1215 23025KT 3500 TSRA FEW020CB BKN032
Pressure 29.74 in
Visibility 6.2 miles
Clouds Mostly Cloudy 4000 ft
Scattered Clouds 30000 ft
Heat Index 102 °F
Dew Point 74 °F
Humidity 56%
Rainfall 0.00 in
Snow Depth Not available.
UV 0 out of 12
Pollen Not available.
Air Quality Not available.
Flu Activity Not available.
METAR VTCC 301130Z 02002KT 9999 BKN040 SCT300 32/20 Q1007 A2975 TEMPO FM1135 TL1215 23025KT 3500 TSRA FEW020CB BKN032

10-Day Weather Forecast

×

Almanac

Astronomy

Aug. 30, 2015 Rise Set
Actual Time
Civil Twilight
Nautical Twilight
Astronomical Twilight
Moon
Length of Visible Light
Length of Day
Tomorrow will be .
, % of the Moon is Illuminated

Today's Extremes

Country Highs Country Lows

Community

WunderPhotos

Upload Photos

1,850,930 photos uploaded!

WunderBlogs® & News

Nearby

Air Quality

  Air Quality AQ Index Pollutant
Not available.

Snow Depth

Station Depth Elevation

Earthquake Activity

City Distance Mag. Time & Date
Minimum magnitude displayed is 2.5.

Coastal Water Temperatures

Place Temperature

Stations

Nearby Weather Stations

Station Location Temp. Windchill Dew Point Humidity Wind Precip. Elev Updated Type